createdAt,value
2022-08-24T00:00:37.994Z,64.61
2022-08-24T00:03:05.598Z,64.85
2022-08-24T00:05:32.849Z,64.12
2022-08-24T00:08:00.027Z,64.81
2022-08-24T00:10:27.478Z,65.37
2022-08-24T00:12:54.644Z,65.54
2022-08-24T00:15:21.861Z,64.92
2022-08-24T00:17:49.315Z,64.75
2022-08-24T00:20:16.817Z,63.88
2022-08-24T00:22:44.042Z,63.65
2022-08-24T00:25:12.278Z,64.12
2022-08-24T00:27:39.958Z,64.08
2022-08-24T00:30:08.482Z,63.57
2022-08-24T00:32:37.829Z,63.70
2022-08-24T00:35:05.649Z,63.99
2022-08-24T00:37:34.491Z,64.04
2022-08-24T00:40:04.185Z,63.94
2022-08-24T00:42:31.395Z,64.85
2022-08-24T00:44:58.604Z,64.38
2022-08-24T00:47:27.860Z,64.27
2022-08-24T00:49:56.811Z,63.86
2022-08-24T00:52:43.939Z,64.05
2022-08-24T00:55:13.396Z,63.84
2022-08-24T00:57:41.968Z,64.37
2022-08-24T01:00:11.282Z,64.36
2022-08-24T01:02:41.554Z,64.49
2022-08-24T01:05:09.122Z,64.34
2022-08-24T01:07:36.934Z,64.60
2022-08-24T01:10:06.178Z,65.29
2022-08-24T01:12:33.525Z,64.89
2022-08-24T01:15:01.010Z,64.96
2022-08-24T01:17:46.992Z,65.37
2022-08-24T01:20:14.770Z,64.92
2022-08-24T01:23:20.963Z,64.34
2022-08-24T01:25:48.137Z,65.13
2022-08-24T01:28:17.085Z,64.37
2022-08-24T01:30:52.871Z,65.04
2022-08-24T01:33:25.774Z,64.21
2022-08-24T01:36:11.675Z,65.35
2022-08-24T01:38:39.101Z,65.98
2022-08-24T01:41:06.510Z,64.53
2022-08-24T01:43:37.328Z,65.99
2022-08-24T01:46:06.159Z,65.35
2022-08-24T01:48:33.766Z,65.28
2022-08-24T01:51:00.954Z,65.01
2022-08-24T01:53:28.442Z,65.80
2022-08-24T01:55:55.760Z,65.51
2022-08-24T01:58:22.953Z,65.51
2022-08-24T02:00:50.425Z,65.02
2022-08-24T02:03:17.911Z,65.09
2022-08-24T02:05:45.534Z,65.09
2022-08-24T02:08:18.127Z,65.41
2022-08-24T02:10:52.962Z,65.28
2022-08-24T02:13:24.296Z,65.03
2022-08-24T02:15:53.062Z,64.96
2022-08-24T02:18:20.366Z,64.02
2022-08-24T02:20:47.947Z,64.54
2022-08-24T02:23:15.136Z,65.58
2022-08-24T02:25:42.331Z,65.24
2022-08-24T02:28:09.802Z,64.81
2022-08-24T02:30:36.996Z,65.37
2022-08-24T02:33:04.393Z,65.75
2022-08-24T02:35:31.978Z,65.18
2022-08-24T02:37:59.373Z,64.69
2022-08-24T02:40:27.303Z,65.08
2022-08-24T02:42:55.712Z,64.82
2022-08-24T02:45:23.040Z,64.82
2022-08-24T02:47:50.269Z,64.90
2022-08-24T02:50:18.906Z,64.79
2022-08-24T02:52:46.273Z,65.11
2022-08-24T02:55:15.446Z,64.70
2022-08-24T02:57:48.113Z,64.05
2022-08-24T03:00:16.675Z,64.65
2022-08-24T03:02:45.659Z,64.92
2022-08-24T03:05:14.335Z,65.21
2022-08-24T03:07:43.033Z,65.41
2022-08-24T03:10:10.665Z,64.70
2022-08-24T03:12:38.630Z,65.38
2022-08-24T03:15:06.754Z,65.40
2022-08-24T03:17:35.131Z,65.30
2022-08-24T03:20:04.472Z,65.63
2022-08-24T03:22:31.709Z,65.69
2022-08-24T03:24:58.926Z,66.75
2022-08-24T03:27:26.537Z,65.95
2022-08-24T03:29:53.848Z,65.81
2022-08-24T03:32:21.800Z,66.45
2022-08-24T03:34:49.890Z,66.36
2022-08-24T03:37:18.266Z,65.72
2022-08-24T03:39:47.682Z,65.58
2022-08-24T03:42:15.162Z,67.20
2022-08-24T03:44:43.004Z,65.84
2022-08-24T03:47:10.664Z,67.18
2022-08-24T03:49:39.362Z,66.78
2022-08-24T03:52:06.659Z,66.36
2022-08-24T03:54:35.461Z,66.15
2022-08-24T03:57:03.114Z,66.51
2022-08-24T03:59:31.670Z,65.58
2022-08-24T04:01:59.115Z,65.90
2022-08-24T04:04:26.705Z,66.13
2022-08-24T04:06:53.885Z,65.77
2022-08-24T04:09:21.384Z,65.03
2022-08-24T04:11:51.842Z,65.91
2022-08-24T04:14:26.905Z,65.66
2022-08-24T04:16:57.527Z,65.91
2022-08-24T04:19:26.795Z,65.68
2022-08-24T04:21:57.410Z,65.51
2022-08-24T04:24:25.421Z,65.06
2022-08-24T04:26:52.746Z,64.82
2022-08-24T04:29:20.465Z,65.35
2022-08-24T04:31:48.519Z,65.45
2022-08-24T04:34:16.656Z,64.94
2022-08-24T04:36:45.063Z,65.36
2022-08-24T04:39:12.835Z,65.02
2022-08-24T04:41:42.719Z,64.68
2022-08-24T04:44:10.157Z,65.23
2022-08-24T04:46:38.923Z,64.86
2022-08-24T04:49:06.143Z,65.62
2022-08-24T04:51:36.796Z,65.62
2022-08-24T04:54:05.181Z,65.97
2022-08-24T04:56:32.389Z,66.12
2022-08-24T04:59:00.152Z,65.93
2022-08-24T05:01:28.687Z,65.27
2022-08-24T05:03:56.058Z,65.02
2022-08-24T05:06:24.933Z,65.26
2022-08-24T05:08:53.876Z,65.37
2022-08-24T05:11:21.926Z,65.61
2022-08-24T05:13:51.585Z,65.76
2022-08-24T05:16:19.061Z,65.93
2022-08-24T05:18:47.018Z,65.40
2022-08-24T05:21:18.590Z,65.46
2022-08-24T05:23:46.839Z,65.65
2022-08-24T05:26:19.533Z,65.71
2022-08-24T05:28:47.793Z,65.68
2022-08-24T05:31:16.527Z,65.47
2022-08-24T05:33:43.991Z,65.58
2022-08-24T05:36:18.920Z,65.11
2022-08-24T05:38:46.705Z,64.90
2022-08-24T05:41:15.721Z,65.56
2022-08-24T05:43:44.217Z,65.23
2022-08-24T05:46:11.880Z,65.51
2022-08-24T05:48:39.426Z,65.39
2022-08-24T05:51:10.716Z,65.35
2022-08-24T05:53:41.892Z,64.76
2022-08-24T05:56:11.008Z,65.22
2022-08-24T05:58:38.492Z,65.86
2022-08-24T06:01:10.359Z,64.16
2022-08-24T06:03:38.717Z,63.25
2022-08-24T06:06:07.678Z,64.46
2022-08-24T06:08:41.502Z,65.61
2022-08-24T06:11:09.958Z,64.91
2022-08-24T06:13:37.948Z,63.89
2022-08-24T06:16:25.359Z,63.43
2022-08-24T06:18:53.876Z,63.21
2022-08-24T06:21:23.105Z,64.69
2022-08-24T06:23:51.248Z,64.52
2022-08-24T06:26:38.652Z,63.06
2022-08-24T06:29:06.182Z,64.01
2022-08-24T06:31:39.428Z,64.07
2022-08-24T06:34:07.823Z,63.40
2022-08-24T06:36:35.526Z,63.25
2022-08-24T06:39:03.180Z,61.73
2022-08-24T06:41:30.736Z,61.57
2022-08-24T06:43:59.336Z,60.42
2022-08-24T06:46:31.994Z,58.97
2022-08-24T06:49:00.979Z,58.79
2022-08-24T06:51:28.463Z,58.27
2022-08-24T06:53:58.860Z,57.99
2022-08-24T06:56:26.575Z,58.22
2022-08-24T06:58:53.949Z,56.89
2022-08-24T07:01:22.540Z,55.80
2022-08-24T07:03:50.146Z,56.17
2022-08-24T07:06:19.009Z,56.22
2022-08-24T07:08:46.640Z,54.84
2022-08-24T07:11:15.000Z,55.74
2022-08-24T07:13:42.503Z,55.22
2022-08-24T07:16:10.243Z,53.95
2022-08-24T07:18:40.867Z,54.00
2022-08-24T07:21:09.400Z,54.33
2022-08-24T07:23:42.148Z,54.55
2022-08-24T07:26:11.410Z,55.04
2022-08-24T07:28:53.077Z,56.27
2022-08-24T07:31:21.366Z,56.44
2022-08-24T07:33:49.429Z,56.42
2022-08-24T07:36:22.444Z,56.10
2022-08-24T07:38:52.499Z,55.19
2022-08-24T07:41:40.371Z,54.24
2022-08-24T07:44:09.035Z,53.23
2022-08-24T07:46:36.484Z,56.33
2022-08-24T07:49:11.900Z,52.41
2022-08-24T07:51:48.423Z,52.20
2022-08-24T07:54:15.656Z,50.17
2022-08-24T07:56:43.084Z,49.89
2022-08-24T07:59:13.222Z,49.22
2022-08-24T08:01:41.565Z,48.53
2022-08-24T08:04:10.467Z,47.31
2022-08-24T08:06:37.697Z,46.92
2022-08-24T08:09:05.451Z,46.33
2022-08-24T08:11:33.189Z,46.43
2022-08-24T08:14:01.469Z,44.96
2022-08-24T08:16:29.909Z,45.61
2022-08-24T08:19:12.734Z,46.28
2022-08-24T08:22:03.337Z,45.86
2022-08-24T08:24:31.817Z,46.50
2022-08-24T08:27:00.872Z,45.26
2022-08-24T08:29:28.377Z,45.07
2022-08-24T08:31:56.257Z,47.78
2022-08-24T08:34:23.446Z,46.53
2022-08-24T08:36:51.138Z,46.08
2022-08-24T08:39:19.172Z,47.16
2022-08-24T08:41:49.664Z,46.87
2022-08-24T08:44:22.076Z,46.34
2022-08-24T08:46:49.285Z,46.79
2022-08-24T08:49:25.668Z,46.85
2022-08-24T08:51:56.742Z,47.95
2022-08-24T08:54:39.180Z,48.11
2022-08-24T08:57:17.308Z,49.04
2022-08-24T08:59:49.515Z,48.58
2022-08-24T09:02:23.326Z,47.12
2022-08-24T09:04:58.703Z,47.21
2022-08-24T09:07:27.701Z,47.08
2022-08-24T09:09:56.082Z,49.32
2022-08-24T09:12:42.518Z,51.12
2022-08-24T09:15:33.189Z,48.44
2022-08-24T09:18:00.439Z,48.22
2022-08-24T09:20:29.056Z,49.05
2022-08-24T09:23:02.085Z,46.70
2022-08-24T09:25:36.300Z,45.82
2022-08-24T09:28:13.070Z,47.41
2022-08-24T09:30:57.705Z,48.21
2022-08-24T09:33:51.089Z,45.90
2022-08-24T09:36:19.335Z,46.38
2022-08-24T09:39:00.093Z,47.35
2022-08-24T09:41:36.638Z,45.50
2022-08-24T09:44:03.839Z,43.54
2022-08-24T09:46:43.329Z,45.71
2022-08-24T09:49:29.281Z,46.14
2022-08-24T09:51:56.782Z,47.25
2022-08-24T09:54:28.973Z,46.52
2022-08-24T09:57:11.650Z,44.42
2022-08-24T10:00:12.117Z,44.58
2022-08-24T10:02:54.478Z,46.02
2022-08-24T10:05:22.029Z,44.79
2022-08-24T10:08:03.494Z,45.90
2022-08-24T10:10:40.149Z,44.26
2022-08-24T10:13:10.857Z,45.07
2022-08-24T10:15:48.154Z,44.03
2022-08-24T10:18:24.194Z,44.06
2022-08-24T10:20:54.509Z,44.10
2022-08-24T10:23:43.078Z,44.46
2022-08-24T10:26:17.458Z,44.01
2022-08-24T10:28:49.288Z,45.05
2022-08-24T10:31:35.740Z,46.24
2022-08-24T10:34:30.305Z,46.19
2022-08-24T10:37:10.014Z,47.22
2022-08-24T10:40:01.994Z,46.26
2022-08-24T10:42:48.894Z,46.68
2022-08-24T10:45:34.095Z,44.10
2022-08-24T10:48:13.474Z,44.68
2022-08-24T10:50:46.422Z,46.90
2022-08-24T10:53:21.187Z,47.78
2022-08-24T10:55:51.997Z,47.46
2022-08-24T10:58:22.412Z,47.68
2022-08-24T11:00:49.823Z,48.79
2022-08-24T11:03:27.973Z,49.18
2022-08-24T11:05:56.359Z,48.71
2022-08-24T11:08:23.541Z,49.17
2022-08-24T11:11:10.392Z,49.55
2022-08-24T11:13:39.441Z,48.17
2022-08-24T11:16:06.864Z,51.20
2022-08-24T11:18:53.333Z,49.40
2022-08-24T11:21:41.691Z,47.03
2022-08-24T11:24:14.482Z,51.29
2022-08-24T11:27:14.468Z,48.65
2022-08-24T11:29:51.145Z,51.76
2022-08-24T11:32:26.226Z,49.47
2022-08-24T11:34:53.455Z,50.09
2022-08-24T11:37:27.041Z,51.52
2022-08-24T11:39:56.409Z,51.26
2022-08-24T11:42:36.206Z,50.46
2022-08-24T11:45:06.957Z,51.82
2022-08-24T11:47:34.345Z,51.17
2022-08-24T11:50:04.166Z,51.72
2022-08-24T11:52:37.549Z,52.12
2022-08-24T11:55:46.618Z,53.32
2022-08-24T11:58:33.130Z,53.19
2022-08-24T12:01:05.573Z,53.55
2022-08-24T12:03:33.201Z,55.21
2022-08-24T12:06:00.357Z,56.64
2022-08-24T12:08:27.710Z,55.29
2022-08-24T12:11:04.166Z,54.63
2022-08-24T12:13:52.866Z,56.00
2022-08-24T12:16:56.021Z,56.08
2022-08-24T12:19:36.921Z,58.86
2022-08-24T12:22:05.891Z,57.13
2022-08-24T12:24:40.123Z,57.82
2022-08-24T12:27:13.243Z,60.59
2022-08-24T12:29:40.382Z,62.36
2022-08-24T12:32:12.596Z,62.93
2022-08-24T12:34:58.403Z,63.14
2022-08-24T12:37:52.560Z,63.64
2022-08-24T12:40:34.768Z,64.58
2022-08-24T12:43:13.188Z,63.95
2022-08-24T12:45:40.604Z,65.08
2022-08-24T12:48:12.205Z,65.72
2022-08-24T12:50:42.648Z,65.59
2022-08-24T12:53:13.553Z,65.20
2022-08-24T12:55:52.341Z,64.78
2022-08-24T12:58:34.541Z,65.62
2022-08-24T13:01:06.065Z,64.87
2022-08-24T13:03:35.100Z,65.22
2022-08-24T13:06:04.141Z,65.17
2022-08-24T13:08:41.987Z,65.77
2022-08-24T13:11:13.652Z,65.66
2022-08-24T13:13:42.823Z,66.23
2022-08-24T13:16:10.792Z,65.81
2022-08-24T13:18:50.541Z,66.01
2022-08-24T13:21:35.067Z,69.02
2022-08-24T13:24:21.243Z,67.33
2022-08-24T13:26:48.706Z,69.15
2022-08-24T13:29:15.912Z,68.24
2022-08-24T13:31:48.065Z,68.61
2022-08-24T13:34:16.819Z,67.16
2022-08-24T13:36:47.216Z,67.33
2022-08-24T13:39:26.542Z,67.57
2022-08-24T13:42:10.848Z,66.70
2022-08-24T13:44:41.041Z,65.98
2022-08-24T13:47:26.569Z,66.42
2022-08-24T13:50:08.945Z,66.60
2022-08-24T13:52:42.924Z,66.86
2022-08-24T13:55:33.479Z,67.17
2022-08-24T13:58:04.225Z,66.49
2022-08-24T14:00:38.847Z,65.85
2022-08-24T14:03:27.065Z,65.56
2022-08-24T14:06:00.951Z,66.68
2022-08-24T14:08:40.712Z,68.79
2022-08-24T14:11:08.020Z,68.25
2022-08-24T14:13:35.437Z,66.84
2022-08-24T14:16:25.477Z,66.40
2022-08-24T14:19:02.324Z,66.52
2022-08-24T14:21:55.694Z,66.62
2022-08-24T14:24:41.375Z,66.23
2022-08-24T14:27:29.943Z,67.09
2022-08-24T14:30:17.285Z,67.30
2022-08-24T14:33:04.994Z,67.31
2022-08-24T14:35:41.851Z,67.11
2022-08-24T14:38:22.804Z,68.37
2022-08-24T14:40:56.158Z,67.54
2022-08-24T14:43:30.125Z,67.29
2022-08-24T14:46:18.661Z,68.11
2022-08-24T14:48:48.861Z,67.21
2022-08-24T14:51:22.376Z,66.58
2022-08-24T14:53:49.532Z,66.61
2022-08-24T14:56:42.602Z,66.79
2022-08-24T14:59:13.134Z,68.58
2022-08-24T15:01:42.496Z,68.24
2022-08-24T15:04:37.111Z,68.58
2022-08-24T15:07:21.024Z,67.98
2022-08-24T15:09:48.412Z,66.75
2022-08-24T15:12:34.318Z,66.95
2022-08-24T15:15:09.186Z,67.35
2022-08-24T15:18:06.739Z,67.26
2022-08-24T15:20:40.192Z,67.20
2022-08-24T15:23:10.422Z,66.75
2022-08-24T15:25:45.566Z,66.20
2022-08-24T15:28:14.811Z,66.18
2022-08-24T15:30:42.214Z,66.77
2022-08-24T15:33:09.504Z,67.22
2022-08-24T15:35:39.010Z,66.57
2022-08-24T15:38:16.583Z,66.48
2022-08-24T15:40:46.178Z,65.89
2022-08-24T15:43:13.863Z,66.95
2022-08-24T15:45:43.389Z,66.12
2022-08-24T15:48:10.918Z,67.32
2022-08-24T15:50:49.151Z,66.58
2022-08-24T15:53:19.578Z,65.78
2022-08-24T15:55:47.901Z,65.62
2022-08-24T15:58:20.132Z,66.74
2022-08-24T16:01:06.346Z,66.66
2022-08-24T16:03:46.448Z,66.52
2022-08-24T16:06:19.546Z,66.25
2022-08-24T16:08:53.423Z,66.23
2022-08-24T16:11:22.014Z,66.02
2022-08-24T16:13:50.371Z,65.88
2022-08-24T16:16:17.573Z,65.96
2022-08-24T16:18:55.384Z,66.63
2022-08-24T16:21:34.655Z,66.30
2022-08-24T16:24:03.529Z,66.72
2022-08-24T16:26:33.034Z,66.82
2022-08-24T16:29:00.181Z,66.36
2022-08-24T16:31:44.064Z,66.89
2022-08-24T16:34:19.569Z,67.25
2022-08-24T16:36:47.132Z,67.36
2022-08-24T16:39:15.149Z,66.92
2022-08-24T16:41:43.014Z,67.42
2022-08-24T16:44:10.752Z,67.20
2022-08-24T16:46:38.559Z,66.45
2022-08-24T16:49:06.021Z,67.03
2022-08-24T16:51:45.143Z,66.46
2022-08-24T16:54:13.025Z,66.46
2022-08-24T16:56:42.204Z,66.09
2022-08-24T16:59:14.857Z,66.19
2022-08-24T17:01:42.356Z,65.24
2022-08-24T17:04:09.566Z,65.24
2022-08-24T17:06:36.738Z,65.18
2022-08-24T17:09:04.266Z,64.81
2022-08-24T17:11:33.275Z,65.03
2022-08-24T17:14:00.427Z,65.18
2022-08-24T17:16:27.952Z,65.15
2022-08-24T17:18:57.328Z,65.48
2022-08-24T17:21:24.867Z,64.93
2022-08-24T17:23:52.505Z,65.45
2022-08-24T17:26:21.951Z,65.33
2022-08-24T17:28:49.897Z,65.38
2022-08-24T17:31:17.446Z,64.69
2022-08-24T17:33:44.679Z,64.47
2022-08-24T17:36:15.617Z,65.26
2022-08-24T17:38:45.848Z,65.08
2022-08-24T17:41:14.306Z,64.66
2022-08-24T17:43:46.004Z,65.19
2022-08-24T17:46:14.405Z,64.93
2022-08-24T17:48:45.353Z,65.54
2022-08-24T17:51:13.580Z,66.22
2022-08-24T17:53:40.998Z,65.74
2022-08-24T17:56:08.606Z,65.40
2022-08-24T17:58:56.002Z,65.52
2022-08-24T18:01:23.601Z,65.34
2022-08-24T18:03:51.537Z,66.11
2022-08-24T18:06:19.461Z,66.68
2022-08-24T18:08:47.127Z,66.07
2022-08-24T18:11:14.987Z,65.76
2022-08-24T18:13:42.306Z,66.79
2022-08-24T18:16:20.781Z,66.50
2022-08-24T18:18:49.366Z,65.93
2022-08-24T18:21:16.607Z,66.51
2022-08-24T18:23:43.977Z,66.31
2022-08-24T18:26:11.656Z,65.51
2022-08-24T18:28:38.843Z,65.83
2022-08-24T18:31:11.380Z,65.71
2022-08-24T18:33:44.430Z,65.62
2022-08-24T18:36:12.118Z,65.67
2022-08-24T18:38:39.497Z,65.10
2022-08-24T18:41:06.985Z,65.58
2022-08-24T18:43:34.266Z,65.73
2022-08-24T18:46:01.653Z,65.87
2022-08-24T18:48:29.221Z,65.49
2022-08-24T18:50:57.498Z,65.55
2022-08-24T18:53:25.649Z,65.46
2022-08-24T18:55:53.112Z,65.80
2022-08-24T18:58:20.851Z,65.87
2022-08-24T19:00:48.329Z,65.54
2022-08-24T19:03:24.267Z,65.48
2022-08-24T19:05:51.715Z,65.88
2022-08-24T19:08:19.242Z,65.30
2022-08-24T19:10:46.831Z,65.15
2022-08-24T19:13:15.632Z,65.11
2022-08-24T19:15:43.412Z,65.07
2022-08-24T19:18:14.561Z,65.48
2022-08-24T19:20:48.474Z,65.65
2022-08-24T19:23:18.431Z,65.60
2022-08-24T19:25:46.098Z,65.32
2022-08-24T19:28:42.804Z,65.38
2022-08-24T19:31:18.849Z,65.04
2022-08-24T19:33:49.831Z,65.39
2022-08-24T19:36:18.194Z,65.12
2022-08-24T19:38:45.975Z,65.53
2022-08-24T19:41:14.260Z,65.04
2022-08-24T19:44:00.627Z,65.23
2022-08-24T19:46:28.259Z,65.67
2022-08-24T19:48:56.282Z,64.88
2022-08-24T19:51:23.703Z,65.01
2022-08-24T19:53:56.460Z,65.41
2022-08-24T19:56:24.710Z,65.18
2022-08-24T19:58:53.155Z,64.93
2022-08-24T20:01:21.795Z,65.01
2022-08-24T20:03:49.711Z,64.87
2022-08-24T20:06:21.149Z,65.64
2022-08-24T20:08:49.151Z,65.50
2022-08-24T20:11:17.342Z,65.14
2022-08-24T20:13:44.785Z,64.81
2022-08-24T20:16:14.849Z,64.75
2022-08-24T20:18:42.383Z,64.24
2022-08-24T20:21:10.241Z,64.91
2022-08-24T20:23:37.859Z,64.81
2022-08-24T20:26:06.467Z,65.45
2022-08-24T20:28:38.463Z,65.16
2022-08-24T20:31:06.565Z,65.00
2022-08-24T20:33:34.048Z,65.45
2022-08-24T20:36:01.331Z,65.86
2022-08-24T20:38:31.797Z,65.66
2022-08-24T20:40:59.590Z,65.54
2022-08-24T20:43:27.346Z,65.49
2022-08-24T20:45:54.786Z,65.32
2022-08-24T20:48:25.820Z,64.37
2022-08-24T20:50:53.031Z,64.86
2022-08-24T20:53:20.495Z,64.61
2022-08-24T20:55:48.350Z,64.09
2022-08-24T20:58:15.726Z,64.34
2022-08-24T21:00:44.458Z,64.94
2022-08-24T21:03:15.944Z,64.92
2022-08-24T21:05:43.613Z,64.86
2022-08-24T21:08:11.379Z,64.45
2022-08-24T21:10:39.990Z,64.18
2022-08-24T21:13:07.445Z,64.43
2022-08-24T21:15:34.619Z,64.45
2022-08-24T21:18:03.381Z,64.41
2022-08-24T21:20:32.906Z,64.27
2022-08-24T21:23:00.141Z,64.47
2022-08-24T21:25:27.481Z,64.56
2022-08-24T21:27:54.920Z,64.61
2022-08-24T21:30:22.389Z,64.53
2022-08-24T21:33:08.101Z,65.12
2022-08-24T21:35:35.775Z,64.43
2022-08-24T21:38:04.396Z,64.84
2022-08-24T21:40:31.694Z,64.54
2022-08-24T21:42:59.214Z,64.08
2022-08-24T21:45:27.301Z,64.67
2022-08-24T21:47:54.474Z,65.24
2022-08-24T21:50:25.524Z,64.55
2022-08-24T21:52:53.877Z,64.34
2022-08-24T21:55:21.689Z,64.63
2022-08-24T21:57:49.501Z,64.39
2022-08-24T22:00:18.594Z,64.71
2022-08-24T22:02:46.829Z,64.59
2022-08-24T22:05:14.734Z,65.07
2022-08-24T22:07:41.900Z,65.42
2022-08-24T22:10:28.413Z,65.12
2022-08-24T22:12:55.579Z,64.71
2022-08-24T22:15:23.399Z,64.48
2022-08-24T22:17:52.773Z,64.22
2022-08-24T22:20:23.336Z,64.35
2022-08-24T22:22:51.144Z,64.23
2022-08-24T22:25:18.338Z,64.15
2022-08-24T22:27:45.882Z,64.20
2022-08-24T22:30:14.499Z,64.34
2022-08-24T22:32:41.677Z,64.90
2022-08-24T22:35:09.069Z,64.85
2022-08-24T22:37:36.644Z,65.63
2022-08-24T22:40:04.461Z,65.03
2022-08-24T22:42:31.808Z,64.62
2022-08-24T22:44:59.922Z,64.70
2022-08-24T22:47:27.583Z,64.58
2022-08-24T22:49:55.075Z,64.64
2022-08-24T22:52:22.552Z,64.98
2022-08-24T22:54:49.739Z,65.23
2022-08-24T22:57:19.940Z,65.57
2022-08-24T22:59:47.485Z,65.13
2022-08-24T23:02:15.742Z,64.88
2022-08-24T23:04:45.771Z,64.56
2022-08-24T23:07:13.339Z,64.38
2022-08-24T23:09:44.739Z,64.97
2022-08-24T23:12:15.835Z,64.36
2022-08-24T23:14:43.577Z,64.35
2022-08-24T23:17:10.962Z,64.47
2022-08-24T23:19:57.154Z,63.87
2022-08-24T23:22:24.340Z,64.13
2022-08-24T23:24:53.285Z,64.57
2022-08-24T23:27:20.600Z,64.58
2022-08-24T23:29:48.568Z,64.28
2022-08-24T23:32:17.925Z,64.29
2022-08-24T23:34:46.372Z,64.44
2022-08-24T23:37:15.645Z,63.97
2022-08-24T23:39:43.092Z,64.55
2022-08-24T23:42:10.574Z,64.25
2022-08-24T23:44:39.069Z,65.47
2022-08-24T23:47:06.825Z,64.53
2022-08-24T23:49:34.223Z,64.25
2022-08-24T23:52:01.413Z,64.29
2022-08-24T23:54:29.075Z,64.55
2022-08-24T23:56:56.583Z,64.30
2022-08-24T23:59:25.284Z,64.71
